sensor_id;sensor_type;location;lat;lon;timestamp;temperature;humidity
11242;DHT22;5678;52.370;9.006;2023-07-09T04:49:47;19.00;99.90
11242;DHT22;5678;52.370;9.006;2023-07-09T04:52:15;19.20;99.90
11242;DHT22;5678;52.370;9.006;2023-07-09T04:54:43;19.60;99.90
11242;DHT22;5678;52.370;9.006;2023-07-09T04:57:11;20.00;99.90
11242;DHT22;5678;52.370;9.006;2023-07-09T04:59:39;20.00;99.90
11242;DHT22;5678;52.370;9.006;2023-07-09T05:02:11;20.60;99.90
11242;DHT22;5678;52.370;9.006;2023-07-09T05:04:40;20.50;99.90
11242;DHT22;5678;52.370;9.006;2023-07-09T05:07:09;20.90;99.90
11242;DHT22;5678;52.370;9.006;2023-07-09T05:09:37;21.30;99.90
11242;DHT22;5678;52.370;9.006;2023-07-09T05:12:06;21.80;99.90
11242;DHT22;5678;52.370;9.006;2023-07-09T05:14:35;22.10;99.90
11242;DHT22;5678;52.370;9.006;2023-07-09T05:17:03;22.60;99.90
11242;DHT22;5678;52.370;9.006;2023-07-09T05:19:32;22.90;99.90
11242;DHT22;5678;52.370;9.006;2023-07-09T05:22:00;23.10;99.90
11242;DHT22;5678;52.370;9.006;2023-07-09T05:24:29;23.30;99.90
11242;DHT22;5678;52.370;9.006;2023-07-09T05:26:57;23.50;99.90
11242;DHT22;5678;52.370;9.006;2023-07-09T05:29:25;23.80;99.90
11242;DHT22;5678;52.370;9.006;2023-07-09T05:31:53;24.00;99.90
11242;DHT22;5678;52.370;9.006;2023-07-09T05:34:21;24.20;99.90
11242;DHT22;5678;52.370;9.006;2023-07-09T05:36:49;24.40;99.90
11242;DHT22;5678;52.370;9.006;2023-07-09T05:39:17;24.40;99.90
11242;DHT22;5678;52.370;9.006;2023-07-09T05:41:46;24.50;99.90
11242;DHT22;5678;52.370;9.006;2023-07-09T05:44:14;24.70;99.90
11242;DHT22;5678;52.370;9.006;2023-07-09T05:46:42;25.00;99.90
11242;DHT22;5678;52.370;9.006;2023-07-09T05:49:10;25.20;99.90
11242;DHT22;5678;52.370;9.006;2023-07-09T05:51:40;25.40;99.90
11242;DHT22;5678;52.370;9.006;2023-07-09T05:54:09;25.70;99.90
11242;DHT22;5678;52.370;9.006;2023-07-09T05:56:38;26.00;99.90
11242;DHT22;5678;52.370;9.006;2023-07-09T05:59:07;26.10;99.90
11242;DHT22;5678;52.370;9.006;2023-07-09T06:01:35;26.20;99.90
11242;DHT22;5678;52.370;9.006;2023-07-09T06:04:03;26.20;99.90
11242;DHT22;5678;52.370;9.006;2023-07-09T06:06:31;26.40;99.90
11242;DHT22;5678;52.370;9.006;2023-07-09T06:08:59;26.60;99.90
11242;DHT22;5678;52.370;9.006;2023-07-09T06:11:27;26.90;99.90
11242;DHT22;5678;52.370;9.006;2023-07-09T06:13:55;27.10;99.90
11242;DHT22;5678;52.370;9.006;2023-07-09T06:16:24;27.30;99.90
11242;DHT22;5678;52.370;9.006;2023-07-09T06:18:53;27.40;99.90
11242;DHT22;5678;52.370;9.006;2023-07-09T06:21:20;27.50;99.90
11242;DHT22;5678;52.370;9.006;2023-07-09T06:23:48;27.70;99.90
11242;DHT22;5678;52.370;9.006;2023-07-09T06:26:16;27.80;99.90
11242;DHT22;5678;52.370;9.006;2023-07-09T06:28:45;27.60;99.90
11242;DHT22;5678;52.370;9.006;2023-07-09T06:31:14;27.80;99.90
11242;DHT22;5678;52.370;9.006;2023-07-09T06:33:43;28.00;99.90
11242;DHT22;5678;52.370;9.006;2023-07-09T06:36:11;28.10;99.90
11242;DHT22;5678;52.370;9.006;2023-07-09T06:38:39;28.40;99.90
11242;DHT22;5678;52.370;9.006;2023-07-09T06:41:07;28.40;99.90
11242;DHT22;5678;52.370;9.006;2023-07-09T06:43:35;28.60;99.90
11242;DHT22;5678;52.370;9.006;2023-07-09T06:46:07;28.70;99.90
11242;DHT22;5678;52.370;9.006;2023-07-09T06:48:37;28.80;99.90
11242;DHT22;5678;52.370;9.006;2023-07-09T06:51:07;28.90;99.90
11242;DHT22;5678;52.370;9.006;2023-07-09T06:53:35;29.00;99.90
11242;DHT22;5678;52.370;9.006;2023-07-09T06:56:03;29.20;99.90
11242;DHT22;5678;52.370;9.006;2023-07-09T06:58:32;29.20;99.90
11242;DHT22;5678;52.370;9.006;2023-07-09T07:01:01;29.30;99.90
11242;DHT22;5678;52.370;9.006;2023-07-09T07:03:32;29.40;99.90
11242;DHT22;5678;52.370;9.006;2023-07-09T07:06:03;29.60;99.90
11242;DHT22;5678;52.370;9.006;2023-07-09T07:08:34;29.70;99.90
11242;DHT22;5678;52.370;9.006;2023-07-09T07:11:03;30.00;99.90
11242;DHT22;5678;52.370;9.006;2023-07-09T07:13:33;30.20;99.90
11242;DHT22;5678;52.370;9.006;2023-07-09T07:16:04;30.40;99.90
11242;DHT22;5678;52.370;9.006;2023-07-09T07:18:33;30.30;99.90
11242;DHT22;5678;52.370;9.006;2023-07-09T07:21:01;30.30;99.90
11242;DHT22;5678;52.370;9.006;2023-07-09T07:23:29;30.30;99.90
11242;DHT22;5678;52.370;9.006;2023-07-09T07:25:59;30.20;99.90
11242;DHT22;5678;52.370;9.006;2023-07-09T07:28:27;30.30;99.90
11242;DHT22;5678;52.370;9.006;2023-07-09T07:30:59;30.20;99.90
11242;DHT22;5678;52.370;9.006;2023-07-09T07:33:27;30.30;99.90
11242;DHT22;5678;52.370;9.006;2023-07-09T07:35:55;30.30;99.90
11242;DHT22;5678;52.370;9.006;2023-07-09T07:38:26;30.50;99.90
11242;DHT22;5678;52.370;9.006;2023-07-09T07:40:54;30.90;99.90
11242;DHT22;5678;52.370;9.006;2023-07-09T07:43:23;31.10;99.90
11242;DHT22;5678;52.370;9.006;2023-07-09T07:45:51;31.20;99.90
11242;DHT22;5678;52.370;9.006;2023-07-09T07:48:19;31.40;99.90
11242;DHT22;5678;52.370;9.006;2023-07-09T07:50:47;31.50;99.90
11242;DHT22;5678;52.370;9.006;2023-07-09T07:53:16;31.80;99.90
11242;DHT22;5678;52.370;9.006;2023-07-09T07:55:44;31.90;99.90
11242;DHT22;5678;52.370;9.006;2023-07-09T07:58:13;32.00;99.90
11242;DHT22;5678;52.370;9.006;2023-07-09T08:00:42;32.30;99.90
11242;DHT22;5678;52.370;9.006;2023-07-09T08:03:10;32.60;99.90
11242;DHT22;5678;52.370;9.006;2023-07-09T08:05:38;32.90;99.90
11242;DHT22;5678;52.370;9.006;2023-07-09T08:08:06;33.20;99.90
11242;DHT22;5678;52.370;9.006;2023-07-09T08:10:34;33.40;99.90
11242;DHT22;5678;52.370;9.006;2023-07-09T08:13:02;33.70;99.90
11242;DHT22;5678;52.370;9.006;2023-07-09T08:15:30;33.90;99.90
11242;DHT22;5678;52.370;9.006;2023-07-09T08:18:00;33.90;99.90
11242;DHT22;5678;52.370;9.006;2023-07-09T08:20:28;33.80;99.90
11242;DHT22;5678;52.370;9.006;2023-07-09T08:22:56;34.00;99.90
11242;DHT22;5678;52.370;9.006;2023-07-09T08:25:24;34.10;1.00
11242;DHT22;5678;52.370;9.006;2023-07-09T08:27:52;34.20;1.00
11242;DHT22;5678;52.370;9.006;2023-07-09T08:30:20;34.30;1.00
11242;DHT22;5678;52.370;9.006;2023-07-09T08:32:47;34.60;1.00
11242;DHT22;5678;52.370;9.006;2023-07-09T08:35:17;34.70;1.00
11242;DHT22;5678;52.370;9.006;2023-07-09T08:37:48;34.90;1.00
11242;DHT22;5678;52.370;9.006;2023-07-09T08:40:17;35.10;1.00
11242;DHT22;5678;52.370;9.006;2023-07-09T08:42:46;35.20;1.00
11242;DHT22;5678;52.370;9.006;2023-07-09T08:45:37;35.40;1.00
11242;DHT22;5678;52.370;9.006;2023-07-09T08:48:11;35.60;1.00
11242;DHT22;5678;52.370;9.006;2023-07-09T08:50:47;35.40;1.00
11242;DHT22;5678;52.370;9.006;2023-07-09T08:53:19;35.50;1.00
11242;DHT22;5678;52.370;9.006;2023-07-09T08:55:50;35.80;1.00
11242;DHT22;5678;52.370;9.006;2023-07-09T08:58:23;35.80;1.00
11242;DHT22;5678;52.370;9.006;2023-07-09T09:00:54;35.90;1.00
11242;DHT22;5678;52.370;9.006;2023-07-09T09:03:35;35.90;1.00
11242;DHT22;5678;52.370;9.006;2023-07-09T09:06:11;36.00;1.00
11242;DHT22;5678;52.370;9.006;2023-07-09T09:08:43;36.10;1.00
11242;DHT22;5678;52.370;9.006;2023-07-09T09:11:19;36.10;1.00
11242;DHT22;5678;52.370;9.006;2023-07-09T09:13:51;36.10;1.00
11242;DHT22;5678;52.370;9.006;2023-07-09T09:16:25;36.30;1.00
11242;DHT22;5678;52.370;9.006;2023-07-09T09:18:57;36.30;1.00
11242;DHT22;5678;52.370;9.006;2023-07-09T09:21:29;36.30;1.00
11242;DHT22;5678;52.370;9.006;2023-07-09T09:24:09;36.30;1.00
11242;DHT22;5678;52.370;9.006;2023-07-09T09:26:42;36.00;1.00
11242;DHT22;5678;52.370;9.006;2023-07-09T09:29:12;35.80;1.00
11242;DHT22;5678;52.370;9.006;2023-07-09T09:31:41;35.90;1.00
11242;DHT22;5678;52.370;9.006;2023-07-09T09:34:18;36.10;1.00
11242;DHT22;5678;52.370;9.006;2023-07-09T09:36:49;36.20;1.00
11242;DHT22;5678;52.370;9.006;2023-07-09T09:39:17;36.30;1.00
11242;DHT22;5678;52.370;9.006;2023-07-09T09:41:46;36.50;1.00
11242;DHT22;5678;52.370;9.006;2023-07-09T09:44:24;36.60;1.00
11242;DHT22;5678;52.370;9.006;2023-07-09T09:46:52;36.80;1.00
11242;DHT22;5678;52.370;9.006;2023-07-09T09:49:26;36.80;1.00
11242;DHT22;5678;52.370;9.006;2023-07-09T09:51:55;37.00;1.00
11242;DHT22;5678;52.370;9.006;2023-07-09T09:54:29;36.90;1.00
11242;DHT22;5678;52.370;9.006;2023-07-09T09:56:58;36.90;1.00
11242;DHT22;5678;52.370;9.006;2023-07-09T09:59:29;36.90;1.00
11242;DHT22;5678;52.370;9.006;2023-07-09T10:01:59;37.00;1.00
11242;DHT22;5678;52.370;9.006;2023-07-09T10:04:28;36.90;1.00
11242;DHT22;5678;52.370;9.006;2023-07-09T10:07:07;36.90;1.00
11242;DHT22;5678;52.370;9.006;2023-07-09T10:09:45;37.00;1.00
11242;DHT22;5678;52.370;9.006;2023-07-09T10:12:25;36.90;1.00
11242;DHT22;5678;52.370;9.006;2023-07-09T10:15:01;36.70;1.00
11242;DHT22;5678;52.370;9.006;2023-07-09T10:17:36;36.80;1.00
11242;DHT22;5678;52.370;9.006;2023-07-09T10:20:09;36.90;1.00
11242;DHT22;5678;52.370;9.006;2023-07-09T10:22:50;37.10;1.00
11242;DHT22;5678;52.370;9.006;2023-07-09T10:25:30;37.10;1.00
11242;DHT22;5678;52.370;9.006;2023-07-09T10:28:44;37.20;1.00
11242;DHT22;5678;52.370;9.006;2023-07-09T10:31:24;37.10;1.00
11242;DHT22;5678;52.370;9.006;2023-07-09T10:34:01;37.00;1.00
11242;DHT22;5678;52.370;9.006;2023-07-09T10:36:41;36.90;1.00
11242;DHT22;5678;52.370;9.006;2023-07-09T10:39:16;36.90;1.00
11242;DHT22;5678;52.370;9.006;2023-07-09T10:41:47;36.30;1.00
11242;DHT22;5678;52.370;9.006;2023-07-09T10:44:20;36.30;1.00
11242;DHT22;5678;52.370;9.006;2023-07-09T10:46:53;36.20;1.00
11242;DHT22;5678;52.370;9.006;2023-07-09T10:49:27;36.10;1.00
11242;DHT22;5678;52.370;9.006;2023-07-09T10:52:04;36.10;1.00
11242;DHT22;5678;52.370;9.006;2023-07-09T10:54:37;36.30;1.00
11242;DHT22;5678;52.370;9.006;2023-07-09T10:57:11;36.40;1.00
11242;DHT22;5678;52.370;9.006;2023-07-09T10:59:43;36.50;1.00
11242;DHT22;5678;52.370;9.006;2023-07-09T11:02:19;36.50;1.00
11242;DHT22;5678;52.370;9.006;2023-07-09T11:04:52;36.40;1.00
11242;DHT22;5678;52.370;9.006;2023-07-09T11:07:26;36.10;1.00
11242;DHT22;5678;52.370;9.006;2023-07-09T11:09:57;36.10;1.00
11242;DHT22;5678;52.370;9.006;2023-07-09T11:12:30;36.10;1.00
11242;DHT22;5678;52.370;9.006;2023-07-09T11:15:04;36.20;1.00
11242;DHT22;5678;52.370;9.006;2023-07-09T11:17:34;36.40;1.00
11242;DHT22;5678;52.370;9.006;2023-07-09T11:20:14;36.40;1.00
11242;DHT22;5678;52.370;9.006;2023-07-09T11:22:52;36.40;1.00
11242;DHT22;5678;52.370;9.006;2023-07-09T11:25:31;36.40;1.00
11242;DHT22;5678;52.370;9.006;2023-07-09T11:28:04;36.60;1.00
11242;DHT22;5678;52.370;9.006;2023-07-09T11:30:33;36.70;1.00
11242;DHT22;5678;52.370;9.006;2023-07-09T11:33:03;36.70;1.00
11242;DHT22;5678;52.370;9.006;2023-07-09T11:35:51;36.50;1.00
11242;DHT22;5678;52.370;9.006;2023-07-09T11:38:22;36.80;1.00
11242;DHT22;5678;52.370;9.006;2023-07-09T11:40:53;36.70;1.00
11242;DHT22;5678;52.370;9.006;2023-07-09T11:43:32;36.70;1.00
11242;DHT22;5678;52.370;9.006;2023-07-09T11:46:13;36.80;1.00
11242;DHT22;5678;52.370;9.006;2023-07-09T11:48:41;36.90;1.00
11242;DHT22;5678;52.370;9.006;2023-07-09T11:51:15;37.20;1.00
11242;DHT22;5678;52.370;9.006;2023-07-09T11:53:46;37.30;1.00
11242;DHT22;5678;52.370;9.006;2023-07-09T11:56:19;37.30;1.00
11242;DHT22;5678;52.370;9.006;2023-07-09T11:58:52;37.00;1.00
11242;DHT22;5678;52.370;9.006;2023-07-09T12:01:22;37.00;1.00
11242;DHT22;5678;52.370;9.006;2023-07-09T12:03:51;37.20;1.00
11242;DHT22;5678;52.370;9.006;2023-07-09T12:06:22;37.40;1.00
11242;DHT22;5678;52.370;9.006;2023-07-09T12:08:51;37.40;1.00
11242;DHT22;5678;52.370;9.006;2023-07-09T12:11:23;37.40;1.00
11242;DHT22;5678;52.370;9.006;2023-07-09T12:13:51;37.20;1.00
11242;DHT22;5678;52.370;9.006;2023-07-09T12:16:24;37.20;1.00
11242;DHT22;5678;52.370;9.006;2023-07-09T12:18:53;37.10;1.00
11242;DHT22;5678;52.370;9.006;2023-07-09T12:21:22;37.20;1.00
11242;DHT22;5678;52.370;9.006;2023-07-09T12:23:50;37.50;1.00
11242;DHT22;5678;52.370;9.006;2023-07-09T12:26:20;37.60;1.00
11242;DHT22;5678;52.370;9.006;2023-07-09T12:28:51;37.70;1.00
11242;DHT22;5678;52.370;9.006;2023-07-09T12:31:25;37.70;1.00
11242;DHT22;5678;52.370;9.006;2023-07-09T12:33:55;37.30;1.00
11242;DHT22;5678;52.370;9.006;2023-07-09T12:36:25;37.30;1.00
11242;DHT22;5678;52.370;9.006;2023-07-09T12:38:56;37.10;1.00
11242;DHT22;5678;52.370;9.006;2023-07-09T12:41:28;36.90;1.00
11242;DHT22;5678;52.370;9.006;2023-07-09T12:43:57;36.90;1.00
11242;DHT22;5678;52.370;9.006;2023-07-09T12:46:25;37.10;1.00
11242;DHT22;5678;52.370;9.006;2023-07-09T12:48:55;37.30;1.00
11242;DHT22;5678;52.370;9.006;2023-07-09T12:51:25;37.40;1.00
11242;DHT22;5678;52.370;9.006;2023-07-09T12:54:01;37.60;1.00
11242;DHT22;5678;52.370;9.006;2023-07-09T12:56:34;37.60;1.00
11242;DHT22;5678;52.370;9.006;2023-07-09T12:59:11;37.50;1.00
11242;DHT22;5678;52.370;9.006;2023-07-09T13:01:48;37.30;1.00
11242;DHT22;5678;52.370;9.006;2023-07-09T13:04:16;37.50;1.00
11242;DHT22;5678;52.370;9.006;2023-07-09T13:06:45;37.50;1.00
11242;DHT22;5678;52.370;9.006;2023-07-09T13:09:19;37.70;1.00
11242;DHT22;5678;52.370;9.006;2023-07-09T13:11:49;37.90;1.00
11242;DHT22;5678;52.370;9.006;2023-07-09T13:14:19;38.00;1.00
11242;DHT22;5678;52.370;9.006;2023-07-09T13:16:48;38.10;1.00
11242;DHT22;5678;52.370;9.006;2023-07-09T13:19:16;37.90;1.00
11242;DHT22;5678;52.370;9.006;2023-07-09T13:21:45;37.70;1.00
11242;DHT22;5678;52.370;9.006;2023-07-09T13:24:16;37.70;1.00
11242;DHT22;5678;52.370;9.006;2023-07-09T13:26:45;37.60;1.00
11242;DHT22;5678;52.370;9.006;2023-07-09T13:29:17;37.40;1.00
11242;DHT22;5678;52.370;9.006;2023-07-09T13:31:46;37.30;1.00
11242;DHT22;5678;52.370;9.006;2023-07-09T13:34:20;37.10;1.00
11242;DHT22;5678;52.370;9.006;2023-07-09T13:36:49;37.10;1.00
11242;DHT22;5678;52.370;9.006;2023-07-09T13:39:18;36.90;1.00
11242;DHT22;5678;52.370;9.006;2023-07-09T13:41:48;36.90;1.00
11242;DHT22;5678;52.370;9.006;2023-07-09T13:44:20;36.90;1.00
11242;DHT22;5678;52.370;9.006;2023-07-09T13:46:48;36.80;1.00
11242;DHT22;5678;52.370;9.006;2023-07-09T13:49:20;36.90;1.00
11242;DHT22;5678;52.370;9.006;2023-07-09T13:51:49;36.90;1.00
11242;DHT22;5678;52.370;9.006;2023-07-09T13:54:20;37.10;1.00
11242;DHT22;5678;52.370;9.006;2023-07-09T13:56:48;37.20;1.00
11242;DHT22;5678;52.370;9.006;2023-07-09T13:59:20;37.20;1.00
11242;DHT22;5678;52.370;9.006;2023-07-09T14:01:50;37.00;1.00
11242;DHT22;5678;52.370;9.006;2023-07-09T14:04:19;37.00;1.00
11242;DHT22;5678;52.370;9.006;2023-07-09T14:06:48;37.20;1.00
11242;DHT22;5678;52.370;9.006;2023-07-09T14:09:16;37.30;1.00
11242;DHT22;5678;52.370;9.006;2023-07-09T14:11:45;37.60;1.00
11242;DHT22;5678;52.370;9.006;2023-07-09T14:14:19;37.80;1.00
11242;DHT22;5678;52.370;9.006;2023-07-09T14:16:49;37.90;1.00
11242;DHT22;5678;52.370;9.006;2023-07-09T14:19:18;38.00;1.00
11242;DHT22;5678;52.370;9.006;2023-07-09T14:21:48;38.10;1.00
11242;DHT22;5678;52.370;9.006;2023-07-09T14:24:20;38.00;1.00
11242;DHT22;5678;52.370;9.006;2023-07-09T14:26:49;38.00;1.00
11242;DHT22;5678;52.370;9.006;2023-07-09T14:29:19;37.90;1.00
11242;DHT22;5678;52.370;9.006;2023-07-09T14:31:48;37.80;1.00
11242;DHT22;5678;52.370;9.006;2023-07-09T14:34:19;37.70;1.00
11242;DHT22;5678;52.370;9.006;2023-07-09T14:36:49;37.70;1.00
11242;DHT22;5678;52.370;9.006;2023-07-09T14:39:17;37.80;1.00
11242;DHT22;5678;52.370;9.006;2023-07-09T14:41:45;37.60;1.00
11242;DHT22;5678;52.370;9.006;2023-07-09T14:44:23;37.60;1.00
11242;DHT22;5678;52.370;9.006;2023-07-09T14:46:54;37.70;1.00
11242;DHT22;5678;52.370;9.006;2023-07-09T14:49:22;37.80;1.00
11242;DHT22;5678;52.370;9.006;2023-07-09T14:51:51;37.70;1.00
11242;DHT22;5678;52.370;9.006;2023-07-09T14:54:21;37.60;1.00
11242;DHT22;5678;52.370;9.006;2023-07-09T14:56:51;37.40;1.00
11242;DHT22;5678;52.370;9.006;2023-07-09T14:59:20;37.30;1.00
11242;DHT22;5678;52.370;9.006;2023-07-09T15:01:50;37.20;1.00
11242;DHT22;5678;52.370;9.006;2023-07-09T15:04:28;37.20;1.00
11242;DHT22;5678;52.370;9.006;2023-07-09T15:06:57;37.00;1.00
11242;DHT22;5678;52.370;9.006;2023-07-09T15:09:27;36.90;1.00
11242;DHT22;5678;52.370;9.006;2023-07-09T15:11:58;36.70;1.00
11242;DHT22;5678;52.370;9.006;2023-07-09T15:14:27;36.60;1.00
11242;DHT22;5678;52.370;9.006;2023-07-09T15:16:56;36.50;1.00
11242;DHT22;5678;52.370;9.006;2023-07-09T15:19:27;36.40;1.00
11242;DHT22;5678;52.370;9.006;2023-07-09T15:21:55;36.30;1.00
11242;DHT22;5678;52.370;9.006;2023-07-09T15:24:26;36.40;1.00
11242;DHT22;5678;52.370;9.006;2023-07-09T15:26:55;36.40;1.00
11242;DHT22;5678;52.370;9.006;2023-07-09T15:29:23;36.40;1.00
11242;DHT22;5678;52.370;9.006;2023-07-09T15:31:51;36.40;1.00
11242;DHT22;5678;52.370;9.006;2023-07-09T15:34:21;36.40;1.00
11242;DHT22;5678;52.370;9.006;2023-07-09T15:36:50;36.50;1.00
11242;DHT22;5678;52.370;9.006;2023-07-09T15:39:20;36.40;1.00
11242;DHT22;5678;52.370;9.006;2023-07-09T15:41:48;36.40;1.00
11242;DHT22;5678;52.370;9.006;2023-07-09T15:44:17;36.40;1.00
11242;DHT22;5678;52.370;9.006;2023-07-09T15:46:51;36.30;1.00
11242;DHT22;5678;52.370;9.006;2023-07-09T15:49:23;36.20;1.00
11242;DHT22;5678;52.370;9.006;2023-07-09T15:51:52;36.10;1.00
11242;DHT22;5678;52.370;9.006;2023-07-09T15:54:21;36.00;1.00
11242;DHT22;5678;52.370;9.006;2023-07-09T15:56:51;35.90;1.00
11242;DHT22;5678;52.370;9.006;2023-07-09T15:59:27;35.80;1.00
11242;DHT22;5678;52.370;9.006;2023-07-09T16:01:55;35.70;1.00
11242;DHT22;5678;52.370;9.006;2023-07-09T16:04:25;35.70;1.00
11242;DHT22;5678;52.370;9.006;2023-07-09T16:06:54;35.60;1.00
11242;DHT22;5678;52.370;9.006;2023-07-09T16:09:22;35.60;1.00
11242;DHT22;5678;52.370;9.006;2023-07-09T16:11:51;35.40;1.00
11242;DHT22;5678;52.370;9.006;2023-07-09T16:14:23;35.30;1.00
11242;DHT22;5678;52.370;9.006;2023-07-09T16:16:53;35.30;1.00
11242;DHT22;5678;52.370;9.006;2023-07-09T16:19:24;35.30;1.00
11242;DHT22;5678;52.370;9.006;2023-07-09T16:21:55;35.20;1.00
11242;DHT22;5678;52.370;9.006;2023-07-09T16:24:25;35.10;1.00
11242;DHT22;5678;52.370;9.006;2023-07-09T16:26:53;35.10;1.00
11242;DHT22;5678;52.370;9.006;2023-07-09T16:29:24;35.00;1.00
11242;DHT22;5678;52.370;9.006;2023-07-09T16:31:53;34.80;1.00
11242;DHT22;5678;52.370;9.006;2023-07-09T16:34:22;34.80;1.00
11242;DHT22;5678;52.370;9.006;2023-07-09T16:36:51;34.70;1.00
11242;DHT22;5678;52.370;9.006;2023-07-09T16:39:24;34.60;1.00
11242;DHT22;5678;52.370;9.006;2023-07-09T16:41:53;34.40;1.00
11242;DHT22;5678;52.370;9.006;2023-07-09T16:44:22;34.30;1.00
11242;DHT22;5678;52.370;9.006;2023-07-09T16:46:52;33.70;1.00
11242;DHT22;5678;52.370;9.006;2023-07-09T16:49:27;34.10;1.00
11242;DHT22;5678;52.370;9.006;2023-07-09T16:51:57;33.90;1.00
11242;DHT22;5678;52.370;9.006;2023-07-09T16:54:25;33.80;1.00
11242;DHT22;5678;52.370;9.006;2023-07-09T16:56:54;33.60;1.00
11242;DHT22;5678;52.370;9.006;2023-07-09T16:59:22;33.50;1.00
11242;DHT22;5678;52.370;9.006;2023-07-09T17:01:51;33.40;1.00
11242;DHT22;5678;52.370;9.006;2023-07-09T17:04:22;33.30;1.00
11242;DHT22;5678;52.370;9.006;2023-07-09T17:06:50;33.10;1.00
11242;DHT22;5678;52.370;9.006;2023-07-09T17:09:20;32.90;1.00
11242;DHT22;5678;52.370;9.006;2023-07-09T17:11:52;32.80;1.00
11242;DHT22;5678;52.370;9.006;2023-07-09T17:14:23;32.70;1.00
11242;DHT22;5678;52.370;9.006;2023-07-09T17:16:51;32.40;1.00
11242;DHT22;5678;52.370;9.006;2023-07-09T17:19:19;32.30;1.00
11242;DHT22;5678;52.370;9.006;2023-07-09T17:21:48;32.10;1.00
11242;DHT22;5678;52.370;9.006;2023-07-09T17:24:21;31.80;1.00
11242;DHT22;5678;52.370;9.006;2023-07-09T17:26:50;31.60;1.00
11242;DHT22;5678;52.370;9.006;2023-07-09T17:29:19;31.30;1.00
11242;DHT22;5678;52.370;9.006;2023-07-09T17:31:49;31.10;1.00
11242;DHT22;5678;52.370;9.006;2023-07-09T17:34:17;30.90;1.00
11242;DHT22;5678;52.370;9.006;2023-07-09T17:36:46;30.80;1.00
11242;DHT22;5678;52.370;9.006;2023-07-09T17:39:18;30.60;1.00
11242;DHT22;5678;52.370;9.006;2023-07-09T17:41:49;30.50;1.00
11242;DHT22;5678;52.370;9.006;2023-07-09T17:44:20;30.40;1.00
11242;DHT22;5678;52.370;9.006;2023-07-09T17:46:49;30.20;1.00
11242;DHT22;5678;52.370;9.006;2023-07-09T17:49:22;30.10;1.00
11242;DHT22;5678;52.370;9.006;2023-07-09T17:51:50;30.00;1.00
11242;DHT22;5678;52.370;9.006;2023-07-09T17:54:20;29.90;1.00
11242;DHT22;5678;52.370;9.006;2023-07-09T17:56:52;29.80;1.00
11242;DHT22;5678;52.370;9.006;2023-07-09T17:59:22;29.80;1.00
11242;DHT22;5678;52.370;9.006;2023-07-09T18:02:09;29.80;1.00
11242;DHT22;5678;52.370;9.006;2023-07-09T18:04:38;29.80;1.00
11242;DHT22;5678;52.370;9.006;2023-07-09T18:07:16;29.60;1.00
11242;DHT22;5678;52.370;9.006;2023-07-09T18:09:45;29.20;1.00
11242;DHT22;5678;52.370;9.006;2023-07-09T18:12:17;28.80;1.00
11242;DHT22;5678;52.370;9.006;2023-07-09T18:14:47;28.40;1.00
11242;DHT22;5678;52.370;9.006;2023-07-09T18:17:17;28.10;1.00
11242;DHT22;5678;52.370;9.006;2023-07-09T18:19:49;27.70;1.00
11242;DHT22;5678;52.370;9.006;2023-07-09T18:22:18;27.30;1.00
11242;DHT22;5678;52.370;9.006;2023-07-09T18:24:48;26.80;99.90
11242;DHT22;5678;52.370;9.006;2023-07-09T18:27:21;26.20;99.90
11242;DHT22;5678;52.370;9.006;2023-07-09T18:29:51;25.60;99.90
11242;DHT22;5678;52.370;9.006;2023-07-09T18:32:21;24.90;99.90
11242;DHT22;5678;52.370;9.006;2023-07-09T18:34:53;24.30;99.90
11242;DHT22;5678;52.370;9.006;2023-07-09T18:37:22;23.90;99.90
11242;DHT22;5678;52.370;9.006;2023-07-09T18:39:51;23.60;99.90
11242;DHT22;5678;52.370;9.006;2023-07-09T18:42:22;23.40;99.90
11242;DHT22;5678;52.370;9.006;2023-07-09T18:44:50;23.10;99.90
11242;DHT22;5678;52.370;9.006;2023-07-09T18:47:19;22.90;99.90
11242;DHT22;5678;52.370;9.006;2023-07-09T18:49:47;22.90;99.90
11242;DHT22;5678;52.370;9.006;2023-07-09T18:52:17;22.90;99.90
11242;DHT22;5678;52.370;9.006;2023-07-09T18:54:47;22.70;99.90
11242;DHT22;5678;52.370;9.006;2023-07-09T18:57:16;22.60;99.90
11242;DHT22;5678;52.370;9.006;2023-07-09T18:59:46;22.40;99.90
11242;DHT22;5678;52.370;9.006;2023-07-09T19:02:16;22.10;99.90
11242;DHT22;5678;52.370;9.006;2023-07-09T19:04:45;21.90;99.90
11242;DHT22;5678;52.370;9.006;2023-07-09T19:07:14;21.80;99.90
11242;DHT22;5678;52.370;9.006;2023-07-09T19:09:43;21.70;99.90
11242;DHT22;5678;52.370;9.006;2023-07-09T19:12:11;21.40;99.90
11242;DHT22;5678;52.370;9.006;2023-07-09T19:14:40;21.30;99.90
11242;DHT22;5678;52.370;9.006;2023-07-09T19:17:13;21.20;99.90
11242;DHT22;5678;52.370;9.006;2023-07-09T19:19:42;21.20;99.90
11242;DHT22;5678;52.370;9.006;2023-07-09T19:22:13;21.10;99.90
11242;DHT22;5678;52.370;9.006;2023-07-09T19:24:42;21.00;99.90
11242;DHT22;5678;52.370;9.006;2023-07-09T19:27:12;20.90;99.90
11242;DHT22;5678;52.370;9.006;2023-07-09T19:29:40;20.90;99.90
11242;DHT22;5678;52.370;9.006;2023-07-09T19:32:14;20.80;99.90
11242;DHT22;5678;52.370;9.006;2023-07-09T19:34:43;20.80;99.90
11242;DHT22;5678;52.370;9.006;2023-07-09T19:37:15;20.80;99.90
11242;DHT22;5678;52.370;9.006;2023-07-09T19:39:46;20.70;99.90
11242;DHT22;5678;52.370;9.006;2023-07-09T19:42:16;20.70;99.90
11242;DHT22;5678;52.370;9.006;2023-07-09T19:44:45;20.60;99.90
11242;DHT22;5678;52.370;9.006;2023-07-09T19:47:18;20.60;99.90
11242;DHT22;5678;52.370;9.006;2023-07-09T19:49:46;20.50;99.90
11242;DHT22;5678;52.370;9.006;2023-07-09T19:52:16;20.50;99.90
11242;DHT22;5678;52.370;9.006;2023-07-09T19:54:44;20.70;99.90
11242;DHT22;5678;52.370;9.006;2023-07-09T19:57:13;20.50;99.90
11242;DHT22;5678;52.370;9.006;2023-07-09T19:59:41;20.60;99.90
11242;DHT22;5678;52.370;9.006;2023-07-09T20:02:19;20.60;99.90
11242;DHT22;5678;52.370;9.006;2023-07-09T20:04:48;20.50;99.90
11242;DHT22;5678;52.370;9.006;2023-07-09T20:07:16;20.60;99.90
11242;DHT22;5678;52.370;9.006;2023-07-09T20:09:44;20.70;99.90
11242;DHT22;5678;52.370;9.006;2023-07-09T20:12:16;20.60;99.90
11242;DHT22;5678;52.370;9.006;2023-07-09T20:14:45;20.60;99.90
11242;DHT22;5678;52.370;9.006;2023-07-09T20:17:14;20.60;99.90
11242;DHT22;5678;52.370;9.006;2023-07-09T20:19:44;20.70;99.90
11242;DHT22;5678;52.370;9.006;2023-07-09T20:22:13;20.70;99.90
11242;DHT22;5678;52.370;9.006;2023-07-09T20:24:42;20.70;99.90
11242;DHT22;5678;52.370;9.006;2023-07-09T20:27:11;20.70;99.90
11242;DHT22;5678;52.370;9.006;2023-07-09T20:29:40;20.70;99.90
11242;DHT22;5678;52.370;9.006;2023-07-09T20:34:40;20.00;99.90
11242;DHT22;5678;52.370;9.006;2023-07-09T20:37:10;20.60;99.90
11242;DHT22;5678;52.370;9.006;2023-07-09T20:39:39;20.50;99.90
11242;DHT22;5678;52.370;9.006;2023-07-09T20:42:10;20.50;99.90
11242;DHT22;5678;52.370;9.006;2023-07-09T20:44:40;20.50;99.90
11242;DHT22;5678;52.370;9.006;2023-07-09T20:50:55;20.50;99.90
11242;DHT22;5678;52.370;9.006;2023-07-09T20:53:25;20.30;99.90
11242;DHT22;5678;52.370;9.006;2023-07-09T20:55:55;20.40;99.90
11242;DHT22;5678;52.370;9.006;2023-07-09T20:58:25;20.40;99.90
11242;DHT22;5678;52.370;9.006;2023-07-09T21:00:54;20.40;99.90
11242;DHT22;5678;52.370;9.006;2023-07-09T21:03:25;20.30;99.90
11242;DHT22;5678;52.370;9.006;2023-07-09T21:05:54;20.40;99.90
11242;DHT22;5678;52.370;9.006;2023-07-09T21:08:26;20.40;99.90
11242;DHT22;5678;52.370;9.006;2023-07-09T21:10:55;20.30;99.90